Time;durP1;ratioP1;P1;durP2;ratioP2;P2;SDS_P1;SDS_P2;PMS_P1;PMS_P2;Temp;Humidity;BMP_temperature;BMP_pressure;BME280_temperature;BME280_humidity;BME280_pressure;Samples;Min_cycle;Max_cycle;Signal;HPM_P1;HPM_P2
2023/05/22 00:01:41;;;;;;;7.60;3.00;;;12.30;99.40;;;;;;5094632;28;20078;-61
2023/05/22 00:04:09;;;;;;;7.40;3.63;;;12.30;99.20;;;;;;5094709;28;20101;-61
2023/05/22 00:06:36;;;;;;;6.30;2.85;;;12.30;99.30;;;;;;5094800;28;20040;-60
2023/05/22 00:09:03;;;;;;;6.25;3.40;;;12.30;99.40;;;;;;5094771;28;20093;-60
2023/05/22 00:11:30;;;;;;;7.40;2.90;;;12.20;99.50;;;;;;5094511;28;20398;-61
2023/05/22 00:13:57;;;;;;;7.75;2.63;;;12.20;99.60;;;;;;5094748;28;20505;-61
2023/05/22 00:16:23;;;;;;;9.55;3.40;;;12.20;99.70;;;;;;5094477;28;20036;-63
2023/05/22 00:18:50;;;;;;;8.02;3.35;;;12.20;99.90;;;;;;5094569;28;20040;-60
2023/05/22 00:21:18;;;;;;;10.90;3.20;;;12.10;99.80;;;;;;5094525;28;20040;-60
2023/05/22 00:23:45;;;;;;;7.22;3.30;;;12.10;99.90;;;;;;5094555;28;20083;-61
2023/05/22 00:26:12;;;;;;;8.88;3.20;;;12.10;99.90;;;;;;5093494;28;20036;-61
2023/05/22 00:28:39;;;;;;;8.60;3.33;;;12.00;99.90;;;;;;5094300;28;20115;-61
2023/05/22 00:31:07;;;;;;;11.88;3.50;;;12.00;99.90;;;;;;5094332;28;20044;-61
2023/05/22 00:33:34;;;;;;;9.18;3.63;;;12.00;99.90;;;;;;5076267;28;20044;-61
2023/05/22 00:36:01;;;;;;;8.43;3.42;;;12.00;99.90;;;;;;5094504;28;20499;-61
2023/05/22 00:38:28;;;;;;;5.72;2.88;;;12.00;99.90;;;;;;5076023;28;20040;-61
2023/05/22 00:40:55;;;;;;;8.15;3.30;;;12.00;99.90;;;;;;5076008;28;20047;-61
2023/05/22 00:43:22;;;;;;;5.18;3.30;;;12.00;99.90;;;;;;5076122;28;20158;-61
2023/05/22 00:45:48;;;;;;;6.93;3.60;;;11.90;99.90;;;;;;5093980;28;20086;-61
2023/05/22 00:48:15;;;;;;;5.93;3.20;;;11.90;99.90;;;;;;5076286;28;20080;-61
2023/05/22 00:50:42;;;;;;;6.93;3.33;;;11.90;99.90;;;;;;5075739;28;20036;-61
2023/05/22 00:53:09;;;;;;;8.90;3.50;;;11.90;99.90;;;;;;5059148;28;20040;-61
2023/05/22 00:55:36;;;;;;;10.18;4.07;;;11.90;99.90;;;;;;5075717;28;20487;-61
2023/05/22 00:58:06;;;;;;;10.45;3.50;;;11.80;99.90;;;;;;5093822;28;20124;-60
2023/05/22 01:00:33;;;;;;;7.50;3.38;;;11.80;99.90;;;;;;5075850;28;20044;-61
2023/05/22 01:03:01;;;;;;;6.13;3.22;;;11.80;99.90;;;;;;5075467;28;20071;-61
2023/05/22 01:05:28;;;;;;;7.00;3.50;;;11.80;99.90;;;;;;5075404;28;20040;-61
2023/05/22 01:07:56;;;;;;;7.75;3.83;;;11.80;99.90;;;;;;5075484;28;20046;-62
2023/05/22 01:10:22;;;;;;;7.85;3.45;;;11.80;99.90;;;;;;5093377;28;20059;-61
2023/05/22 01:12:49;;;;;;;10.75;4.00;;;11.70;99.90;;;;;;5093643;28;20031;-61
2023/05/22 01:15:16;;;;;;;11.38;3.55;;;11.70;99.90;;;;;;5093941;28;20044;-61
2023/05/22 01:17:45;;;;;;;8.75;3.60;;;11.70;99.90;;;;;;5075792;28;20032;-62
2023/05/22 01:20:13;;;;;;;10.63;3.45;;;11.70;99.90;;;;;;5093665;28;20044;-62
2023/05/22 01:22:41;;;;;;;7.55;3.83;;;11.70;99.90;;;;;;5093536;28;20102;-61
2023/05/22 01:25:08;;;;;;;9.35;3.60;;;11.70;99.90;;;;;;5093628;28;20040;-61
2023/05/22 01:27:35;;;;;;;10.32;3.95;;;11.70;99.90;;;;;;5092449;28;20526;-61
2023/05/22 01:30:02;;;;;;;7.25;3.90;;;11.60;99.90;;;;;;5093528;28;20048;-61
2023/05/22 01:32:30;;;;;;;9.05;4.20;;;11.70;99.90;;;;;;5075434;28;20059;-61
2023/05/22 01:34:57;;;;;;;8.05;3.47;;;11.60;99.90;;;;;;5093569;28;20040;-61
2023/05/22 01:37:23;;;;;;;6.05;3.30;;;11.70;99.90;;;;;;5093474;28;20028;-61
2023/05/22 01:39:51;;;;;;;7.82;3.65;;;11.60;99.90;;;;;;5075213;28;20048;-62
2023/05/22 01:42:18;;;;;;;7.53;3.30;;;11.70;99.90;;;;;;5075303;28;20110;-62
2023/05/22 01:44:45;;;;;;;8.52;4.03;;;11.70;99.90;;;;;;5093236;28;20079;-61
2023/05/22 01:47:12;;;;;;;7.72;3.40;;;11.70;99.90;;;;;;5075321;28;20047;-61
2023/05/22 01:49:39;;;;;;;13.27;4.00;;;11.70;99.90;;;;;;5075275;28;20542;-62
2023/05/22 01:52:08;;;;;;;9.73;3.45;;;11.70;99.90;;;;;;5074999;28;20047;-61
2023/05/22 01:54:35;;;;;;;6.07;3.58;;;11.70;99.90;;;;;;5075238;28;20123;-61
2023/05/22 01:57:02;;;;;;;9.10;3.67;;;11.70;99.90;;;;;;5075580;28;20383;-62
2023/05/22 01:59:29;;;;;;;9.70;3.50;;;11.80;99.90;;;;;;5075085;28;20090;-62
2023/05/22 02:01:56;;;;;;;8.90;3.50;;;11.80;99.90;;;;;;5058552;28;20043;-61
2023/05/22 02:04:23;;;;;;;7.38;3.58;;;11.80;99.90;;;;;;5093332;28;20487;-62
2023/05/22 02:06:50;;;;;;;10.70;3.45;;;11.80;99.90;;;;;;5093380;28;20040;-62
2023/05/22 02:09:17;;;;;;;10.93;4.32;;;11.80;99.90;;;;;;5074851;28;20487;-61
2023/05/22 02:11:44;;;;;;;8.32;3.90;;;11.80;99.90;;;;;;5074947;28;20051;-62
2023/05/22 02:14:12;;;;;;;7.55;3.70;;;11.90;99.90;;;;;;5074938;28;20048;-62
2023/05/22 02:16:38;;;;;;;7.45;3.60;;;11.90;99.90;;;;;;5075191;28;20032;-62
2023/05/22 02:19:06;;;;;;;9.70;3.92;;;11.90;99.90;;;;;;5078472;28;20070;-62
2023/05/22 02:21:34;;;;;;;6.97;4.05;;;11.90;99.90;;;;;;5078251;28;20048;-62
2023/05/22 02:24:00;;;;;;;8.00;4.10;;;11.90;99.90;;;;;;5078654;28;20048;-62
2023/05/22 02:26:27;;;;;;;9.07;3.92;;;11.90;99.90;;;;;;5077663;28;20066;-62
2023/05/22 02:28:54;;;;;;;6.05;3.40;;;12.00;99.90;;;;;;5078388;28;20047;-61
2023/05/22 02:31:21;;;;;;;6.18;3.72;;;12.00;99.90;;;;;;5061742;28;20127;-62
2023/05/22 02:33:48;;;;;;;9.75;4.00;;;12.00;99.90;;;;;;5078253;28;20048;-62
2023/05/22 02:36:15;;;;;;;8.68;4.20;;;12.00;99.90;;;;;;5078286;28;20036;-62
2023/05/22 02:38:45;;;;;;;8.30;3.83;;;12.00;99.90;;;;;;5078312;28;20483;-62
2023/05/22 02:41:12;;;;;;;7.38;3.83;;;12.00;99.90;;;;;;5060979;28;20135;-62
2023/05/22 02:43:39;;;;;;;8.20;4.00;;;12.00;99.90;;;;;;5095713;28;20486;-62
2023/05/22 02:46:06;;;;;;;8.82;3.60;;;12.00;99.90;;;;;;5077535;28;20051;-62
2023/05/22 02:48:33;;;;;;;6.72;3.58;;;12.00;99.90;;;;;;5077952;28;20105;-61
2023/05/22 02:51:00;;;;;;;7.72;3.90;;;12.00;99.90;;;;;;5077944;28;20491;-62
2023/05/22 02:53:27;;;;;;;9.50;3.90;;;12.10;99.90;;;;;;5096225;28;20065;-61
2023/05/22 02:55:57;;;;;;;9.80;3.95;;;12.10;99.90;;;;;;5078198;28;20047;-62
2023/05/22 02:58:24;;;;;;;8.23;4.20;;;12.10;99.90;;;;;;5078270;28;20048;-62
2023/05/22 03:00:52;;;;;;;8.95;4.07;;;12.10;99.90;;;;;;5077711;28;20076;-62
2023/05/22 03:03:19;;;;;;;8.07;3.92;;;12.10;99.90;;;;;;5077712;28;20498;-62
2023/05/22 03:05:46;;;;;;;6.78;4.10;;;12.10;99.90;;;;;;5096001;28;20052;-61
2023/05/22 03:08:14;;;;;;;8.88;4.28;;;12.10;99.90;;;;;;5095983;28;20495;-62
2023/05/22 03:10:41;;;;;;;7.90;3.90;;;12.10;99.90;;;;;;5095788;28;20036;-62
2023/05/22 03:13:08;;;;;;;8.45;4.57;;;12.10;99.90;;;;;;5095625;28;20044;-62
2023/05/22 03:15:35;;;;;;;8.30;4.35;;;12.10;99.90;;;;;;5077643;28;20123;-62
2023/05/22 03:18:10;;;;;;;7.63;4.40;;;12.10;99.90;;;;;;5077725;28;20475;-61
2023/05/22 03:20:38;;;;;;;10.57;4.57;;;12.10;99.90;;;;;;5077369;28;20571;-61
2023/05/22 03:23:05;;;;;;;6.55;4.38;;;12.10;99.90;;;;;;5073833;28;20059;-62
2023/05/22 03:25:32;;;;;;;12.73;4.22;;;12.10;99.90;;;;;;5074266;28;20140;-61
2023/05/22 03:27:59;;;;;;;10.80;4.78;;;12.10;99.90;;;;;;5072838;28;20484;-61
2023/05/22 03:30:30;;;;;;;9.15;4.50;;;12.10;99.90;;;;;;5073380;28;20041;-62
2023/05/22 03:33:13;;;;;;;9.40;5.15;;;12.10;99.90;;;;;;5068820;28;20040;-62
2023/05/22 03:35:42;;;;;;;9.63;4.32;;;12.10;99.90;;;;;;5073827;28;20037;-62
2023/05/22 03:38:09;;;;;;;10.20;4.57;;;12.10;99.90;;;;;;5073745;28;20128;-62
2023/05/22 03:40:36;;;;;;;8.95;4.65;;;12.10;99.90;;;;;;5074938;28;20044;-62
2023/05/22 03:43:03;;;;;;;10.75;4.88;;;12.10;99.90;;;;;;5073678;28;20498;-62
2023/05/22 03:45:30;;;;;;;10.90;4.40;;;12.10;99.90;;;;;;5073479;28;20048;-62
2023/05/22 03:47:57;;;;;;;11.63;4.68;;;12.00;99.90;;;;;;5073438;28;20102;-61
2023/05/22 03:50:24;;;;;;;10.27;5.07;;;12.00;99.90;;;;;;5073305;28;20444;-62
2023/05/22 03:52:51;;;;;;;9.85;5.05;;;11.90;99.90;;;;;;5073244;28;20059;-61
2023/05/22 03:55:18;;;;;;;8.30;4.57;;;12.00;99.90;;;;;;5073716;28;20045;-62
2023/05/22 03:57:45;;;;;;;11.57;5.00;;;12.00;99.90;;;;;;5074832;28;20529;-62
2023/05/22 04:00:12;;;;;;;9.20;4.97;;;12.00;99.90;;;;;;5073179;28;20414;-62
2023/05/22 04:02:43;;;;;;;7.18;4.60;;;11.90;99.90;;;;;;5074678;28;20045;-62
2023/05/22 04:05:10;;;;;;;10.95;5.25;;;12.00;99.90;;;;;;5074594;28;20053;-62
2023/05/22 04:07:37;;;;;;;10.65;4.50;;;11.90;99.90;;;;;;5074668;28;20054;-62
2023/05/22 04:10:05;;;;;;;10.80;5.03;;;11.90;99.90;;;;;;5065405;28;20135;-61
2023/05/22 04:12:32;;;;;;;7.47;4.63;;;11.90;99.90;;;;;;5073216;28;20086;-62
2023/05/22 04:14:58;;;;;;;7.65;5.03;;;11.90;99.90;;;;;;5074250;28;20036;-61
2023/05/22 04:17:25;;;;;;;9.82;4.45;;;11.90;99.90;;;;;;5073092;28;20044;-62
2023/05/22 04:19:52;;;;;;;11.38;4.88;;;11.90;99.90;;;;;;5074535;28;20115;-62
2023/05/22 04:22:19;;;;;;;9.07;4.28;;;11.90;99.90;;;;;;5072923;28;20052;-62
2023/05/22 04:24:47;;;;;;;11.57;5.22;;;11.80;99.90;;;;;;5074245;28;20488;-61
2023/05/22 04:27:14;;;;;;;11.00;4.25;;;11.80;99.90;;;;;;5073068;28;20068;-61
2023/05/22 04:29:43;;;;;;;11.95;4.15;;;11.80;99.90;;;;;;5074436;28;20032;-61
2023/05/22 04:32:10;;;;;;;12.88;4.90;;;11.80;99.90;;;;;;5072768;28;20040;-62
2023/05/22 04:34:37;;;;;;;10.85;5.10;;;11.90;99.90;;;;;;5072783;28;20044;-61
2023/05/22 04:37:04;;;;;;;11.52;5.03;;;11.90;99.90;;;;;;5056435;28;20045;-62
2023/05/22 04:39:30;;;;;;;11.68;5.10;;;11.90;99.90;;;;;;5072893;28;20044;-61
2023/05/22 04:41:57;;;;;;;10.45;4.80;;;11.90;99.90;;;;;;5071958;28;20111;-61
2023/05/22 04:44:24;;;;;;;12.73;5.03;;;11.90;99.90;;;;;;5072718;28;20040;-62
2023/05/22 04:46:51;;;;;;;8.38;4.50;;;11.90;99.90;;;;;;5072666;28;20044;-61
2023/05/22 04:49:18;;;;;;;8.25;4.35;;;11.90;99.90;;;;;;5071553;28;20079;-61
2023/05/22 04:51:45;;;;;;;7.03;4.30;;;12.00;99.90;;;;;;5073934;28;20087;-62
2023/05/22 04:54:11;;;;;;;7.45;4.43;;;12.00;99.90;;;;;;5073983;28;20054;-61
2023/05/22 04:56:38;;;;;;;7.63;4.05;;;12.10;99.90;;;;;;5072593;28;20157;-61
2023/05/22 04:59:07;;;;;;;10.60;4.32;;;12.10;99.90;;;;;;5072471;28;20492;-62
2023/05/22 05:01:36;;;;;;;11.05;4.97;;;12.10;99.90;;;;;;5072490;28;20044;-61
2023/05/22 05:04:04;;;;;;;11.32;4.82;;;12.10;99.90;;;;;;5072304;28;20045;-62
2023/05/22 05:06:31;;;;;;;9.73;4.93;;;12.20;99.90;;;;;;5073784;28;20074;-62
2023/05/22 05:08:57;;;;;;;9.82;5.28;;;12.20;99.90;;;;;;5072167;28;20048;-62
2023/05/22 05:11:24;;;;;;;11.45;5.68;;;12.20;99.90;;;;;;5072034;28;20127;-62
2023/05/22 05:13:51;;;;;;;10.60;5.15;;;12.20;99.90;;;;;;5072552;28;20040;-62
2023/05/22 05:16:18;;;;;;;10.50;6.30;;;12.20;99.90;;;;;;5073397;28;20151;-62
2023/05/22 05:18:45;;;;;;;9.80;5.88;;;12.20;99.90;;;;;;5072513;28;20102;-62
2023/05/22 05:21:12;;;;;;;12.10;5.60;;;12.30;99.90;;;;;;5072364;28;20098;-61
2023/05/22 05:23:39;;;;;;;12.45;5.78;;;12.30;99.90;;;;;;5071080;28;20399;-62
2023/05/22 05:26:06;;;;;;;11.82;5.82;;;12.40;99.90;;;;;;5072580;28;20036;-62
2023/05/22 05:28:33;;;;;;;9.98;6.00;;;12.40;99.90;;;;;;5071183;28;20067;-62
2023/05/22 05:31:00;;;;;;;11.13;6.13;;;12.40;99.90;;;;;;5071899;28;20398;-62
2023/05/22 05:33:33;;;;;;;9.57;5.68;;;12.40;99.90;;;;;;5073369;28;20402;-61
2023/05/22 05:36:07;;;;;;;9.38;6.10;;;12.40;99.90;;;;;;5072366;28;20045;-61
2023/05/22 05:38:34;;;;;;;9.30;5.35;;;12.40;99.90;;;;;;5055694;28;20051;-62
2023/05/22 05:41:01;;;;;;;10.95;5.50;;;12.40;99.90;;;;;;5073439;28;20483;-62
2023/05/22 05:43:28;;;;;;;11.35;5.90;;;12.40;99.90;;;;;;5072235;28;20057;-62
2023/05/22 05:46:01;;;;;;;12.05;5.47;;;12.50;99.90;;;;;;5072044;28;20052;-62
2023/05/22 05:48:28;;;;;;;10.55;5.65;;;12.50;99.90;;;;;;5071900;28;20457;-61
2023/05/22 05:50:55;;;;;;;8.90;5.03;;;12.50;99.90;;;;;;5072112;28;20032;-61
2023/05/22 05:53:22;;;;;;;11.98;6.30;;;12.50;99.90;;;;;;5074468;28;20135;-62
2023/05/22 05:55:54;;;;;;;9.50;5.43;;;12.50;99.90;;;;;;5076059;28;20123;-62
2023/05/22 05:58:21;;;;;;;12.25;5.47;;;12.60;99.90;;;;;;5075672;28;20064;-62
2023/05/22 06:01:07;;;;;;;9.73;5.43;;;12.60;99.90;;;;;;5077256;28;20399;-62
2023/05/22 06:03:35;;;;;;;10.65;5.43;;;12.70;99.90;;;;;;5076008;28;20376;-62
2023/05/22 06:06:09;;;;;;;11.90;5.25;;;12.70;99.90;;;;;;5075736;28;20091;-62
2023/05/22 06:09:08;;;;;;;13.10;5.38;;;12.70;99.90;;;;;;5055430;28;20052;-62
2023/05/22 06:11:54;;;;;;;10.82;5.10;;;12.60;99.90;;;;;;5071956;28;20399;-62
2023/05/22 06:14:22;;;;;;;10.77;4.95;;;12.70;99.90;;;;;;5059221;28;20072;-62
2023/05/22 06:16:49;;;;;;;8.30;5.28;;;12.70;99.90;;;;;;5075480;28;20135;-61
2023/05/22 06:19:16;;;;;;;11.40;5.18;;;12.70;99.90;;;;;;5074283;28;20369;-62
2023/05/22 06:21:43;;;;;;;7.55;4.70;;;12.70;99.90;;;;;;5077816;28;20067;-62
2023/05/22 06:24:11;;;;;;;11.57;4.72;;;12.70;99.90;;;;;;5078059;28;20536;-61
2023/05/22 06:26:38;;;;;;;15.27;5.30;;;12.80;99.90;;;;;;5078395;28;20169;-61
2023/05/22 06:29:05;;;;;;;11.15;4.90;;;12.90;99.90;;;;;;5077366;28;20043;-61
2023/05/22 06:31:36;;;;;;;12.65;4.90;;;12.90;99.90;;;;;;5078365;28;20055;-61
2023/05/22 06:34:04;;;;;;;11.50;4.72;;;13.00;99.90;;;;;;5088710;28;20040;-61
2023/05/22 06:36:33;;;;;;;8.75;4.60;;;13.10;99.90;;;;;;5096461;28;20044;-63
2023/05/22 06:39:01;;;;;;;10.55;5.03;;;13.10;99.90;;;;;;5088716;28;20109;-62
2023/05/22 06:41:57;;;;;;;10.05;4.97;;;13.20;99.90;;;;;;5071593;28;20040;-62
2023/05/22 06:44:27;;;;;;;12.00;5.60;;;13.30;99.90;;;;;;5078333;28;20411;-62
2023/05/22 06:46:55;;;;;;;9.77;4.55;;;13.40;99.90;;;;;;5078397;28;20101;-62
2023/05/22 06:49:23;;;;;;;12.50;5.30;;;13.40;99.90;;;;;;5078044;28;20101;-63
2023/05/22 06:51:53;;;;;;;8.02;4.78;;;13.50;99.90;;;;;;5078344;28;20063;-63
2023/05/22 06:54:20;;;;;;;10.13;5.05;;;13.50;99.90;;;;;;5076398;28;20094;-63
2023/05/22 06:56:51;;;;;;;8.05;4.70;;;13.50;99.90;;;;;;5077813;28;20131;-63
2023/05/22 06:59:18;;;;;;;10.27;5.38;;;13.40;99.90;;;;;;5060731;28;20040;-63
2023/05/22 07:02:03;;;;;;;7.85;5.05;;;13.40;99.90;;;;;;5095756;28;20552;-63
2023/05/22 07:05:08;;;;;;;7.90;4.95;;;13.40;99.90;;;;;;5082245;28;20051;-63
2023/05/22 07:07:48;;;;;;;11.27;4.90;;;13.40;99.90;;;;;;5077787;28;20075;-63
2023/05/22 07:10:15;;;;;;;9.05;5.03;;;13.50;99.90;;;;;;5077589;28;20048;-63
2023/05/22 07:12:42;;;;;;;9.50;5.25;;;13.50;99.90;;;;;;5077333;28;20036;-63
2023/05/22 07:15:11;;;;;;;10.25;5.43;;;13.50;99.90;;;;;;5076974;28;20044;-61
2023/05/22 07:17:40;;;;;;;8.50;5.30;;;13.50;99.90;;;;;;5077368;28;20032;-63
2023/05/22 07:20:09;;;;;;;10.10;5.43;;;13.50;99.90;;;;;;5060717;28;20047;-63
2023/05/22 07:22:37;;;;;;;9.90;5.43;;;13.60;99.90;;;;;;5052728;28;20096;-63
2023/05/22 07:25:04;;;;;;;10.80;5.70;;;13.60;99.90;;;;;;5052762;28;20512;-63
2023/05/22 07:27:32;;;;;;;8.05;5.63;;;13.70;99.90;;;;;;5036003;28;20053;-62
2023/05/22 07:30:00;;;;;;;11.45;5.25;;;13.70;99.90;;;;;;5035224;28;20060;-63
2023/05/22 07:32:28;;;;;;;11.45;5.40;;;13.80;99.90;;;;;;5052648;28;20048;-61
2023/05/22 07:34:58;;;;;;;9.00;5.15;;;13.90;99.90;;;;;;5052784;28;20049;-62
2023/05/22 07:37:25;;;;;;;10.20;5.85;;;14.00;99.90;;;;;;5052613;28;20041;-61
2023/05/22 07:39:52;;;;;;;10.00;5.65;;;14.00;99.90;;;;;;5052329;28;20049;-61
2023/05/22 07:42:20;;;;;;;8.48;5.30;;;14.10;99.90;;;;;;5051749;28;20041;-61
2023/05/22 07:44:52;;;;;;;8.88;5.07;;;14.20;99.90;;;;;;5035494;28;20068;-61
2023/05/22 07:47:20;;;;;;;10.50;5.35;;;14.20;99.90;;;;;;5052108;28;20515;-61
2023/05/22 07:49:48;;;;;;;9.45;4.95;;;14.20;99.90;;;;;;5035298;28;20080;-61
2023/05/22 07:52:16;;;;;;;8.38;5.10;;;14.30;99.90;;;;;;5054916;28;20043;-61
2023/05/22 07:54:43;;;;;;;8.93;5.55;;;14.30;99.90;;;;;;5071327;28;20055;-61
2023/05/22 07:57:14;;;;;;;16.55;12.50;;;14.30;99.90;;;;;;5071465;28;20044;-61
2023/05/22 07:59:42;;;;;;;9.27;5.18;;;14.50;99.90;;;;;;5060705;28;20036;-61
2023/05/22 08:02:09;;;;;;;10.57;5.25;;;14.60;99.90;;;;;;5094573;28;20051;-61
2023/05/22 08:04:36;;;;;;;12.18;5.40;;;14.70;99.90;;;;;;5094466;28;20072;-61
2023/05/22 08:07:03;;;;;;;10.85;4.90;;;14.80;99.90;;;;;;5069475;28;20497;-61
2023/05/22 08:09:30;;;;;;;11.13;5.03;;;15.00;99.90;;;;;;5076351;28;20548;-61
2023/05/22 08:11:57;;;;;;;10.50;5.05;;;15.10;99.90;;;;;;5076453;28;20135;-61
2023/05/22 08:14:24;;;;;;;7.07;4.13;;;15.10;99.90;;;;;;5094315;28;20040;-61
2023/05/22 08:16:50;;;;;;;6.80;4.70;;;15.20;99.90;;;;;;5094140;28;20479;-61
2023/05/22 08:19:17;;;;;;;10.02;4.82;;;15.20;99.80;;;;;;5094052;28;20043;-61
2023/05/22 08:21:44;;;;;;;8.45;4.63;;;15.10;99.60;;;;;;5075518;28;20522;-61
2023/05/22 08:24:11;;;;;;;7.10;5.00;;;15.10;99.90;;;;;;5076246;28;20048;-61
2023/05/22 08:26:39;;;;;;;7.82;4.53;;;15.10;99.90;;;;;;5093790;28;20379;-62
2023/05/22 08:29:06;;;;;;;11.23;5.47;;;15.10;99.90;;;;;;5074786;28;20043;-62
2023/05/22 08:31:34;;;;;;;6.68;4.40;;;15.20;99.90;;;;;;5093669;28;20036;-62
2023/05/22 08:34:02;;;;;;;13.85;4.90;;;15.20;99.90;;;;;;5093806;28;20042;-62
2023/05/22 08:36:28;;;;;;;12.80;5.05;;;15.40;99.60;;;;;;5075701;28;20052;-62
2023/05/22 08:38:55;;;;;;;10.57;4.68;;;15.40;99.50;;;;;;5093857;28;20051;-61
2023/05/22 08:41:22;;;;;;;11.10;4.60;;;15.50;99.00;;;;;;5093659;28;20035;-62
2023/05/22 08:43:49;;;;;;;7.70;4.47;;;15.60;99.10;;;;;;5093751;28;20051;-62
2023/05/22 08:46:16;;;;;;;9.07;5.28;;;15.80;98.90;;;;;;5093831;28;20047;-62
2023/05/22 08:48:43;;;;;;;9.35;4.18;;;15.80;98.50;;;;;;5093549;28;20104;-62
2023/05/22 08:51:10;;;;;;;10.02;4.40;;;15.90;98.60;;;;;;5093268;28;20070;-62
2023/05/22 08:53:37;;;;;;;7.22;4.00;;;15.80;98.50;;;;;;5093392;28;20043;-62
2023/05/22 08:56:04;;;;;;;8.30;4.43;;;15.80;98.20;;;;;;5093693;28;20453;-63
2023/05/22 08:58:31;;;;;;;6.60;4.10;;;15.80;98.30;;;;;;5075302;28;20548;-63
2023/05/22 09:00:57;;;;;;;8.38;4.03;;;15.70;98.40;;;;;;5093236;28;20040;-62
2023/05/22 09:03:24;;;;;;;8.45;3.88;;;15.60;98.60;;;;;;5093545;28;20044;-62
2023/05/22 09:05:51;;;;;;;7.80;3.78;;;15.60;98.30;;;;;;5093600;28;20059;-62
2023/05/22 09:08:18;;;;;;;8.98;4.30;;;15.50;98.40;;;;;;5093676;28;20115;-62
2023/05/22 09:10:46;;;;;;;7.95;3.65;;;15.40;98.40;;;;;;5093259;28;20043;-63
2023/05/22 09:13:18;;;;;;;13.13;3.88;;;15.50;98.60;;;;;;5099783;28;20063;-61
2023/05/22 09:15:44;;;;;;;6.20;3.45;;;15.50;98.80;;;;;;5108973;28;20040;-62
2023/05/22 09:18:12;;;;;;;6.75;3.75;;;15.60;98.20;;;;;;5112577;28;20051;-62
2023/05/22 09:20:39;;;;;;;10.82;4.10;;;15.50;98.10;;;;;;5112526;28;20044;-62
2023/05/22 09:23:06;;;;;;;8.20;4.00;;;15.40;98.20;;;;;;5112575;28;20060;-62
2023/05/22 09:25:33;;;;;;;9.93;4.00;;;15.50;98.10;;;;;;5112674;28;20080;-61
2023/05/22 09:28:00;;;;;;;5.65;3.35;;;15.50;98.00;;;;;;5098563;28;20047;-61
2023/05/22 09:30:26;;;;;;;7.10;4.03;;;15.50;98.00;;;;;;5095600;28;20046;-62
2023/05/22 09:32:53;;;;;;;10.88;3.88;;;15.60;98.00;;;;;;5097367;28;20483;-63
2023/05/22 09:35:20;;;;;;;7.45;3.78;;;15.60;97.90;;;;;;5097570;28;20067;-62
2023/05/22 09:37:47;;;;;;;9.85;3.80;;;15.70;97.90;;;;;;5097377;28;20032;-62
2023/05/22 09:40:14;;;;;;;9.88;3.65;;;15.80;97.70;;;;;;5097034;28;20128;-62
2023/05/22 09:42:41;;;;;;;6.93;4.20;;;15.90;97.90;;;;;;5097042;28;20040;-61
2023/05/22 09:45:08;;;;;;;7.47;3.88;;;15.90;97.60;;;;;;5097060;28;20059;-62
2023/05/22 09:47:35;;;;;;;7.85;4.22;;;15.80;97.60;;;;;;5097181;28;20040;-61
2023/05/22 09:50:03;;;;;;;8.63;4.43;;;15.70;97.80;;;;;;5096956;28;20040;-62
2023/05/22 09:52:30;;;;;;;8.80;4.10;;;15.60;97.80;;;;;;5096730;28;20047;-61
2023/05/22 09:54:57;;;;;;;9.10;3.97;;;15.60;98.10;;;;;;5087965;28;20032;-61
2023/05/22 09:57:25;;;;;;;7.82;4.32;;;15.50;98.20;;;;;;5113242;28;20399;-61
2023/05/22 09:59:56;;;;;;;10.90;4.07;;;15.50;98.10;;;;;;5114272;28;20482;-61
2023/05/22 10:02:23;;;;;;;7.47;4.38;;;15.40;98.00;;;;;;5096739;28;20044;-62
2023/05/22 10:04:51;;;;;;;7.95;4.32;;;15.30;98.10;;;;;;5096993;28;20107;-62
2023/05/22 10:07:18;;;;;;;9.77;4.50;;;15.30;98.00;;;;;;5096958;28;20494;-63
2023/05/22 10:09:45;;;;;;;8.20;4.05;;;15.30;98.00;;;;;;5096788;28;20089;-62
2023/05/22 10:12:15;;;;;;;6.65;3.75;;;15.20;97.60;;;;;;5105689;28;20032;-63
2023/05/22 10:14:41;;;;;;;10.38;4.05;;;15.10;97.60;;;;;;5116303;28;20043;-63
2023/05/22 10:17:10;;;;;;;8.32;3.88;;;15.10;97.60;;;;;;5116183;28;20050;-62
2023/05/22 10:19:37;;;;;;;9.27;4.00;;;15.10;97.70;;;;;;5115123;28;20478;-63
2023/05/22 10:22:08;;;;;;;6.90;4.05;;;15.10;97.70;;;;;;5115315;28;20047;-63
2023/05/22 10:24:35;;;;;;;9.30;3.70;;;15.10;97.60;;;;;;5115875;28;20047;-63
2023/05/22 10:27:02;;;;;;;9.68;3.85;;;15.20;97.70;;;;;;5097813;28;20380;-63
2023/05/22 10:29:28;;;;;;;7.75;4.05;;;15.40;97.60;;;;;;5115916;28;20126;-61
2023/05/22 10:31:55;;;;;;;8.43;3.88;;;15.40;96.80;;;;;;5091647;28;20126;-63
2023/05/22 10:34:32;;;;;;;5.63;3.72;;;15.50;96.90;;;;;;5078067;28;20044;-61
2023/05/22 10:36:58;;;;;;;6.32;3.75;;;15.40;97.00;;;;;;5096162;28;20048;-62
2023/05/22 10:39:43;;;;;;;8.15;3.95;;;15.50;97.10;;;;;;5094869;28;20085;-61
2023/05/22 10:42:09;;;;;;;8.15;4.20;;;15.70;96.80;;;;;;5088065;28;20032;-63
2023/05/22 10:44:36;;;;;;;8.10;3.83;;;15.80;96.70;;;;;;5096036;28;20040;-62
2023/05/22 10:47:03;;;;;;;6.15;4.00;;;15.90;96.60;;;;;;5096056;28;20040;-62
2023/05/22 10:49:30;;;;;;;8.35;4.00;;;15.90;96.10;;;;;;5095993;28;20044;-61
2023/05/22 10:51:57;;;;;;;7.47;3.67;;;16.00;96.20;;;;;;5096004;28;20044;-62
2023/05/22 10:54:23;;;;;;;7.53;3.90;;;16.10;96.10;;;;;;5078177;28;20110;-62
2023/05/22 10:56:51;;;;;;;8.38;3.92;;;16.30;95.90;;;;;;5094721;28;20082;-62
2023/05/22 10:59:17;;;;;;;8.32;4.03;;;16.50;95.90;;;;;;5096148;28;20115;-62
2023/05/22 11:01:44;;;;;;;7.03;3.83;;;16.80;95.90;;;;;;5077690;28;20036;-62
2023/05/22 11:04:19;;;;;;;6.05;4.00;;;17.10;95.40;;;;;;5076833;28;20083;-62
2023/05/22 11:06:50;;;;;;;6.32;3.70;;;17.30;95.10;;;;;;5077663;28;20043;-62
2023/05/22 11:09:20;;;;;;;8.18;3.88;;;17.30;95.20;;;;;;5094385;28;20046;-62
2023/05/22 11:11:47;;;;;;;8.50;3.70;;;17.30;95.40;;;;;;5095635;28;20600;-62
2023/05/22 11:14:14;;;;;;;16.00;4.15;;;17.50;95.20;;;;;;5095245;28;20114;-62
2023/05/22 11:16:41;;;;;;;9.55;3.70;;;17.40;94.90;;;;;;5094667;28;20040;-62
2023/05/22 11:19:08;;;;;;;6.50;4.10;;;17.30;95.10;;;;;;5092036;28;20040;-62
2023/05/22 11:21:49;;;;;;;6.25;3.72;;;17.40;95.30;;;;;;5093791;28;20040;-62
2023/05/22 11:24:19;;;;;;;8.27;3.55;;;17.40;94.80;;;;;;5095360;28;20449;-62
2023/05/22 11:26:46;;;;;;;6.30;3.92;;;17.40;95.00;;;;;;5095252;28;20071;-62
2023/05/22 11:29:12;;;;;;;10.90;3.65;;;17.40;94.60;;;;;;5094473;28;20406;-62
2023/05/22 11:31:39;;;;;;;9.30;3.80;;;17.40;94.50;;;;;;5077348;28;20072;-62
2023/05/22 11:34:06;;;;;;;6.55;3.80;;;17.40;94.70;;;;;;5094336;28;20036;-62
2023/05/22 11:36:33;;;;;;;6.07;3.63;;;17.60;94.90;;;;;;5077296;28;20557;-62
2023/05/22 11:39:00;;;;;;;8.77;3.72;;;17.40;93.90;;;;;;5094064;28;20091;-62
2023/05/22 11:41:27;;;;;;;6.13;3.45;;;17.40;94.10;;;;;;5095094;28;20046;-62
2023/05/22 11:43:53;;;;;;;6.55;3.38;;;17.40;94.20;;;;;;5099306;28;20483;-62
2023/05/22 11:46:20;;;;;;;10.82;3.50;;;17.30;94.30;;;;;;5079270;28;20379;-61
2023/05/22 11:48:47;;;;;;;8.77;3.75;;;17.40;94.20;;;;;;5095193;28;20072;-61
2023/05/22 11:51:14;;;;;;;9.75;3.53;;;17.20;94.00;;;;;;5093262;28;20036;-61
2023/05/22 11:53:41;;;;;;;11.27;3.78;;;17.20;94.70;;;;;;5095198;28;20032;-62
2023/05/22 11:56:07;;;;;;;7.95;3.78;;;17.20;94.30;;;;;;5094963;28;20040;-61
2023/05/22 11:58:34;;;;;;;6.55;3.47;;;17.10;94.50;;;;;;5097238;28;20039;-62
2023/05/22 12:01:01;;;;;;;6.55;3.92;;;17.00;94.60;;;;;;5113914;28;20046;-62
2023/05/22 12:03:28;;;;;;;7.07;3.70;;;17.00;95.00;;;;;;5113310;28;20044;-62
2023/05/22 12:05:55;;;;;;;9.88;4.10;;;16.90;94.80;;;;;;5114409;28;20439;-62
2023/05/22 12:08:22;;;;;;;10.40;4.20;;;16.90;94.70;;;;;;5094704;28;20505;-62
2023/05/22 12:10:48;;;;;;;9.05;4.43;;;16.80;94.80;;;;;;5094783;28;20051;-62
2023/05/22 12:13:15;;;;;;;9.32;4.00;;;16.70;95.10;;;;;;5075411;28;20047;-62
2023/05/22 12:15:42;;;;;;;7.95;3.72;;;16.80;95.20;;;;;;5076115;28;20079;-62
2023/05/22 12:18:10;;;;;;;6.88;4.35;;;16.80;94.90;;;;;;5094281;28;20407;-61
2023/05/22 12:20:37;;;;;;;9.65;3.85;;;16.70;94.80;;;;;;5094676;28;20055;-62
2023/05/22 12:23:04;;;;;;;7.13;4.20;;;16.70;94.70;;;;;;5093253;28;20052;-61
2023/05/22 12:25:31;;;;;;;8.45;4.47;;;16.70;95.20;;;;;;5094331;28;20035;-62
2023/05/22 12:27:57;;;;;;;5.95;3.88;;;16.70;95.00;;;;;;5093147;28;20036;-62
2023/05/22 12:30:24;;;;;;;11.10;3.53;;;16.70;95.10;;;;;;5094403;28;20044;-61
2023/05/22 12:32:51;;;;;;;8.93;3.92;;;16.70;94.80;;;;;;5093174;28;20044;-62
2023/05/22 12:35:18;;;;;;;6.30;3.65;;;16.80;94.90;;;;;;5094273;28;20044;-62
2023/05/22 12:37:45;;;;;;;9.25;4.13;;;16.80;95.00;;;;;;5093288;28;20062;-61
2023/05/22 12:40:12;;;;;;;10.07;4.13;;;16.90;94.90;;;;;;5093857;28;20075;-64
2023/05/22 12:42:39;;;;;;;11.10;3.72;;;17.00;95.00;;;;;;5108128;28;20047;-62
2023/05/22 12:45:05;;;;;;;9.60;3.85;;;17.00;94.70;;;;;;5094320;28;20138;-62
2023/05/22 12:47:32;;;;;;;8.60;3.80;;;17.10;94.80;;;;;;5094186;28;20422;-62